Time;durP1;ratioP1;P1;durP2;ratioP2;P2;SDS_P1;SDS_P2;PMS_P1;PMS_P2;Temp;Humidity;BMP_temperature;BMP_pressure;BME280_temperature;BME280_humidity;BME280_pressure;Samples;Min_cycle;Max_cycle;Signal;HPM_P1;HPM_P2
2022/03/26 00:00:13;;;;;;;133.63;120.55;;;11.20;49.00;;;;;;5048633;28;20076;-75
2022/03/26 00:02:40;;;;;;;134.40;121.35;;;11.10;49.10;;;;;;5031807;28;20140;-75
2022/03/26 00:05:08;;;;;;;132.80;120.15;;;11.10;49.10;;;;;;5032072;28;20121;-74
2022/03/26 00:07:35;;;;;;;132.25;119.53;;;11.10;49.40;;;;;;5031755;28;20789;-74
2022/03/26 00:10:02;;;;;;;139.50;125.88;;;11.00;49.50;;;;;;5032160;28;20050;-74
2022/03/26 00:12:30;;;;;;;139.30;125.25;;;11.00;49.50;;;;;;5032832;28;20132;-74
2022/03/26 00:14:58;;;;;;;140.15;126.35;;;10.90;49.60;;;;;;5049460;28;20046;-75
2022/03/26 00:17:26;;;;;;;139.32;125.20;;;10.90;49.80;;;;;;5032204;28;20054;-74
2022/03/26 00:19:52;;;;;;;137.73;123.90;;;10.90;49.90;;;;;;5032906;28;20740;-75
2022/03/26 00:22:19;;;;;;;137.07;123.53;;;10.80;50.00;;;;;;5016168;28;20132;-75
2022/03/26 00:24:47;;;;;;;134.25;121.35;;;10.80;50.10;;;;;;5032845;28;20839;-74
2022/03/26 00:27:14;;;;;;;136.93;123.50;;;10.80;50.10;;;;;;5032202;28;20133;-74
2022/03/26 00:29:42;;;;;;;138.25;124.72;;;10.70;50.20;;;;;;5048855;28;20054;-74
2022/03/26 00:32:10;;;;;;;143.23;128.50;;;10.70;50.30;;;;;;5032224;28;20053;-74
2022/03/26 00:34:37;;;;;;;139.88;125.80;;;10.70;50.30;;;;;;5032398;28;20042;-74
2022/03/26 00:37:04;;;;;;;143.52;129.05;;;10.60;50.30;;;;;;5033125;28;20050;-74
2022/03/26 00:39:32;;;;;;;140.75;126.57;;;10.60;50.40;;;;;;5033211;28;20081;-74
2022/03/26 00:41:59;;;;;;;147.25;132.40;;;10.60;50.60;;;;;;5035673;28;20197;-75
2022/03/26 00:44:26;;;;;;;147.50;132.25;;;10.50;50.60;;;;;;5031480;28;20056;-75
2022/03/26 00:46:55;;;;;;;147.52;132.57;;;10.50;50.70;;;;;;5033213;28;20165;-74
2022/03/26 00:49:22;;;;;;;142.13;127.82;;;10.50;50.70;;;;;;5032147;28;20069;-74
2022/03/26 00:51:49;;;;;;;146.35;131.60;;;10.40;50.90;;;;;;5033210;28;20050;-74
2022/03/26 00:54:16;;;;;;;141.98;127.47;;;10.40;51.00;;;;;;5031572;28;20053;-74
2022/03/26 00:56:43;;;;;;;140.98;126.57;;;10.40;51.10;;;;;;5031901;28;20060;-74
2022/03/26 00:59:10;;;;;;;142.50;127.90;;;10.30;51.20;;;;;;5031884;28;20042;-74
2022/03/26 01:01:38;;;;;;;138.70;124.57;;;10.30;51.30;;;;;;5032207;28;20058;-74
2022/03/26 01:04:06;;;;;;;141.63;127.03;;;10.30;51.50;;;;;;5031538;28;20577;-74
2022/03/26 01:06:33;;;;;;;139.27;125.38;;;10.20;51.40;;;;;;5032436;28;20064;-74
2022/03/26 01:09:00;;;;;;;144.52;129.50;;;10.20;51.40;;;;;;5034856;28;20484;-74
2022/03/26 01:11:27;;;;;;;143.35;128.70;;;10.20;51.60;;;;;;5036016;28;20140;-74
2022/03/26 01:13:56;;;;;;;144.63;129.30;;;10.20;51.70;;;;;;5035530;28;20046;-74
2022/03/26 01:16:23;;;;;;;150.43;134.80;;;10.10;51.90;;;;;;5019163;28;20056;-74
2022/03/26 01:18:50;;;;;;;145.43;130.35;;;10.10;52.00;;;;;;5035017;28;20056;-74
2022/03/26 01:21:19;;;;;;;144.32;129.30;;;10.10;52.10;;;;;;5035502;28;20615;-74
2022/03/26 01:23:46;;;;;;;143.02;128.35;;;10.10;52.20;;;;;;5034768;28;20045;-74
2022/03/26 01:26:14;;;;;;;143.70;128.90;;;10.00;52.20;;;;;;5034977;28;20054;-74
2022/03/26 01:28:41;;;;;;;150.65;135.00;;;10.00;52.40;;;;;;5034693;28;20076;-74
2022/03/26 01:31:08;;;;;;;150.95;135.13;;;10.00;52.40;;;;;;5035227;28;20078;-74
2022/03/26 01:33:35;;;;;;;150.00;134.27;;;10.00;52.50;;;;;;5015965;28;20054;-74
2022/03/26 01:36:02;;;;;;;152.43;136.30;;;9.90;52.60;;;;;;5015014;28;20054;-74
2022/03/26 01:38:30;;;;;;;151.82;135.85;;;9.90;52.70;;;;;;5014956;28;20132;-73
2022/03/26 01:40:58;;;;;;;147.15;131.93;;;9.90;52.60;;;;;;5014928;28;20051;-74
2022/03/26 01:43:24;;;;;;;138.68;124.88;;;9.90;52.70;;;;;;5014936;28;20049;-74
2022/03/26 01:45:51;;;;;;;145.27;130.57;;;9.90;52.90;;;;;;5016470;28;20065;-74
2022/03/26 01:48:19;;;;;;;140.18;126.15;;;9.80;53.10;;;;;;5014655;28;20053;-74
2022/03/26 01:50:46;;;;;;;134.32;121.20;;;9.80;53.30;;;;;;5015039;28;20108;-74
2022/03/26 01:53:13;;;;;;;137.75;123.65;;;9.80;53.50;;;;;;5015309;28;20082;-74
2022/03/26 01:55:41;;;;;;;139.93;125.82;;;9.70;53.90;;;;;;5014684;28;20492;-74
2022/03/26 01:58:09;;;;;;;136.95;123.10;;;9.80;54.30;;;;;;5014573;28;20101;-74
2022/03/26 02:00:36;;;;;;;144.23;129.40;;;9.70;54.50;;;;;;5016571;28;20081;-74
2022/03/26 02:03:03;;;;;;;138.77;124.90;;;9.70;54.80;;;;;;5014329;28;20587;-74
2022/03/26 02:05:30;;;;;;;144.02;129.15;;;9.70;54.80;;;;;;5014684;28;20061;-74
2022/03/26 02:07:57;;;;;;;148.73;133.13;;;9.60;55.10;;;;;;5015925;28;20051;-74
2022/03/26 02:10:24;;;;;;;146.90;131.98;;;9.60;55.30;;;;;;5014700;28;20058;-74
2022/03/26 02:12:52;;;;;;;146.88;132.00;;;9.60;55.50;;;;;;5014301;28;20043;-74
2022/03/26 02:15:19;;;;;;;142.75;128.32;;;9.50;55.80;;;;;;5014811;28;20054;-74
2022/03/26 02:17:46;;;;;;;144.90;130.00;;;9.60;56.00;;;;;;5015274;28;20058;-74
2022/03/26 02:20:15;;;;;;;148.40;133.20;;;9.50;56.20;;;;;;5014871;28;20564;-73
2022/03/26 02:22:42;;;;;;;152.90;136.60;;;9.50;56.50;;;;;;4998008;28;20074;-74
2022/03/26 02:25:10;;;;;;;149.00;133.40;;;9.50;56.60;;;;;;5014337;28;20057;-74
2022/03/26 02:27:38;;;;;;;152.05;136.18;;;9.50;56.50;;;;;;5014199;28;20082;-74
2022/03/26 02:30:06;;;;;;;151.18;135.07;;;9.40;56.30;;;;;;5014496;28;20457;-74
2022/03/26 02:32:33;;;;;;;151.75;135.55;;;9.40;56.20;;;;;;5024634;28;20597;-74
2022/03/26 02:35:00;;;;;;;154.65;138.13;;;9.40;56.10;;;;;;5034043;28;20142;-74
2022/03/26 02:37:29;;;;;;;147.63;131.57;;;9.30;56.10;;;;;;5033859;28;20495;-74
2022/03/26 02:39:56;;;;;;;143.60;128.68;;;9.30;56.20;;;;;;5034321;28;20053;-73
2022/03/26 02:42:23;;;;;;;140.30;125.72;;;9.30;56.20;;;;;;5034184;28;20052;-74
2022/03/26 02:44:51;;;;;;;140.05;125.40;;;9.20;56.20;;;;;;5035302;28;20056;-73
2022/03/26 02:47:19;;;;;;;140.07;125.57;;;9.20;56.30;;;;;;5034947;28;20053;-74
2022/03/26 02:49:46;;;;;;;142.77;127.68;;;9.20;56.30;;;;;;5034263;28;20104;-74
2022/03/26 02:52:13;;;;;;;141.88;127.18;;;9.10;56.40;;;;;;5033772;28;20052;-74
2022/03/26 02:54:41;;;;;;;139.68;125.10;;;9.10;56.50;;;;;;5033941;28;20052;-74
2022/03/26 02:57:09;;;;;;;142.98;128.27;;;9.00;56.60;;;;;;5033319;28;20057;-74
2022/03/26 02:59:35;;;;;;;140.52;125.82;;;9.00;56.60;;;;;;5033515;28;20058;-74
2022/03/26 03:02:02;;;;;;;139.55;124.90;;;8.90;56.70;;;;;;5033768;28;20065;-73
2022/03/26 03:04:29;;;;;;;138.32;123.85;;;8.90;56.70;;;;;;5033395;28;20129;-73
2022/03/26 03:06:56;;;;;;;139.88;125.32;;;8.90;56.70;;;;;;5016994;28;20056;-74
2022/03/26 03:09:23;;;;;;;140.23;125.40;;;8.90;56.80;;;;;;5033719;28;20431;-74
2022/03/26 03:11:51;;;;;;;140.65;125.82;;;8.90;57.00;;;;;;5033480;28;20060;-74
2022/03/26 03:14:19;;;;;;;140.93;125.82;;;8.80;57.00;;;;;;5033577;28;20050;-73
2022/03/26 03:16:46;;;;;;;141.30;126.60;;;8.80;57.10;;;;;;5016914;28;20054;-74
2022/03/26 03:19:13;;;;;;;141.50;126.75;;;8.80;57.20;;;;;;5033228;28;20060;-74
2022/03/26 03:21:40;;;;;;;138.13;123.53;;;8.70;57.30;;;;;;5033521;28;20038;-74
2022/03/26 03:24:08;;;;;;;138.40;123.65;;;8.80;57.40;;;;;;5034503;28;20089;-73
2022/03/26 03:26:34;;;;;;;142.43;126.78;;;8.70;57.30;;;;;;5033512;28;20049;-74
2022/03/26 03:29:03;;;;;;;142.05;126.97;;;8.70;57.40;;;;;;5033607;28;20148;-74
2022/03/26 03:31:30;;;;;;;144.68;129.10;;;8.70;57.50;;;;;;5031251;28;20441;-73
2022/03/26 03:33:57;;;;;;;145.77;130.20;;;8.70;57.60;;;;;;5013881;28;20161;-73
2022/03/26 03:36:24;;;;;;;140.07;125.70;;;8.70;57.80;;;;;;5013623;28;20058;-73
2022/03/26 03:38:51;;;;;;;143.13;128.02;;;8.60;57.60;;;;;;5013152;28;20050;-74
2022/03/26 03:41:18;;;;;;;140.52;125.85;;;8.60;57.80;;;;;;5013048;28;20590;-73
2022/03/26 03:43:45;;;;;;;145.63;129.90;;;8.60;58.00;;;;;;5013204;28;20137;-73
2022/03/26 03:46:13;;;;;;;142.10;127.00;;;8.60;58.00;;;;;;5014355;28;20046;-73
2022/03/26 03:48:40;;;;;;;140.18;125.25;;;8.60;58.40;;;;;;5012787;28;20591;-73
2022/03/26 03:51:08;;;;;;;141.07;126.05;;;8.50;58.40;;;;;;5013113;28;20046;-73
2022/03/26 03:53:35;;;;;;;142.55;127.55;;;8.50;58.50;;;;;;5012929;28;20150;-73
2022/03/26 03:56:02;;;;;;;138.70;124.13;;;8.60;58.80;;;;;;5014390;28;20054;-73
2022/03/26 03:58:29;;;;;;;141.05;126.07;;;8.50;58.80;;;;;;5012862;28;20057;-74
2022/03/26 04:00:57;;;;;;;138.77;124.22;;;8.50;58.70;;;;;;5014167;28;20488;-73
2022/03/26 04:03:25;;;;;;;139.95;125.18;;;8.50;58.70;;;;;;5013808;28;20058;-74
2022/03/26 04:05:52;;;;;;;139.32;124.72;;;8.40;59.00;;;;;;5013310;28;20051;-74
2022/03/26 04:08:19;;;;;;;138.40;123.80;;;8.40;59.40;;;;;;5016356;28;20054;-74
2022/03/26 04:10:45;;;;;;;141.57;124.95;;;8.40;59.50;;;;;;5012715;28;20042;-74
2022/03/26 04:13:12;;;;;;;145.80;125.85;;;8.40;59.70;;;;;;5014389;28;20550;-73
2022/03/26 04:15:40;;;;;;;148.32;123.18;;;8.30;59.70;;;;;;5014214;28;20160;-73
2022/03/26 04:18:07;;;;;;;152.23;124.45;;;8.30;59.70;;;;;;5012667;28;20050;-73
2022/03/26 04:20:36;;;;;;;133.18;118.68;;;8.30;59.60;;;;;;5013982;28;20057;-74
2022/03/26 04:23:28;;;;;;;131.73;118.05;;;8.30;59.70;;;;;;5015215;28;20133;-73
2022/03/26 04:25:55;;;;;;;162.23;137.25;;;8.20;59.30;;;;;;5012656;28;20046;-73
2022/03/26 04:28:22;;;;;;;149.02;131.75;;;8.20;59.90;;;;;;5012412;28;20138;-73
2022/03/26 04:30:49;;;;;;;155.30;132.50;;;8.10;60.20;;;;;;5013757;28;20046;-73
2022/03/26 04:33:16;;;;;;;156.32;134.88;;;8.10;60.60;;;;;;5012224;28;20508;-73
2022/03/26 04:35:44;;;;;;;149.18;130.65;;;8.00;61.00;;;;;;5012286;28;20489;-73
2022/03/26 04:38:11;;;;;;;155.45;137.30;;;8.00;60.90;;;;;;5012170;28;20050;-73
2022/03/26 04:40:38;;;;;;;154.35;132.27;;;8.00;61.00;;;;;;5012270;28;20524;-73
2022/03/26 04:43:06;;;;;;;151.20;132.65;;;8.00;61.10;;;;;;5011539;28;20054;-74
2022/03/26 04:45:33;;;;;;;158.68;136.95;;;8.00;60.80;;;;;;5013479;28;20065;-73
2022/03/26 04:48:00;;;;;;;150.38;133.18;;;7.90;60.60;;;;;;5012438;28;20062;-73
2022/03/26 04:50:27;;;;;;;147.77;130.10;;;7.90;60.70;;;;;;5013731;28;20145;-73
2022/03/26 04:52:56;;;;;;;149.23;132.68;;;7.90;60.60;;;;;;5013831;28;20050;-73
2022/03/26 04:55:23;;;;;;;148.93;132.50;;;7.80;60.70;;;;;;4996027;28;20046;-73
2022/03/26 04:57:51;;;;;;;149.40;132.38;;;7.80;60.90;;;;;;5012232;28;20058;-73
2022/03/26 05:00:19;;;;;;;151.40;133.80;;;7.80;61.00;;;;;;5012217;28;20146;-73
2022/03/26 05:02:46;;;;;;;146.98;130.98;;;7.80;61.30;;;;;;5011943;28;20050;-73
2022/03/26 05:05:15;;;;;;;149.15;132.30;;;7.80;61.70;;;;;;5012232;28;20058;-73
2022/03/26 05:07:49;;;;;;;147.55;130.93;;;7.70;61.90;;;;;;4995387;28;20053;-73
2022/03/26 05:10:19;;;;;;;147.38;129.90;;;7.70;62.00;;;;;;5013090;28;20054;-73
2022/03/26 05:12:47;;;;;;;149.50;131.05;;;7.70;62.50;;;;;;5011731;28;20062;-73
2022/03/26 05:15:16;;;;;;;149.68;130.45;;;7.70;62.80;;;;;;5011553;28;20062;-73
2022/03/26 05:17:43;;;;;;;149.27;130.07;;;7.60;62.90;;;;;;5011219;28;20173;-73
2022/03/26 05:20:12;;;;;;;148.60;132.32;;;7.60;62.90;;;;;;4995286;28;20047;-73
2022/03/26 05:22:42;;;;;;;143.13;127.18;;;7.60;62.90;;;;;;5011725;28;20047;-73
2022/03/26 05:25:10;;;;;;;148.70;131.57;;;7.60;62.70;;;;;;5011770;28;20058;-73
2022/03/26 05:27:38;;;;;;;161.55;139.13;;;7.50;62.70;;;;;;5012648;28;20072;-73
2022/03/26 05:30:07;;;;;;;158.68;137.85;;;7.40;63.50;;;;;;5012650;28;20198;-73
2022/03/26 05:32:34;;;;;;;165.98;140.57;;;7.20;64.00;;;;;;5011734;28;20424;-73
2022/03/26 05:35:01;;;;;;;154.50;135.02;;;7.10;64.90;;;;;;5011524;28;20050;-73
2022/03/26 05:37:30;;;;;;;157.95;137.32;;;7.10;65.50;;;;;;5012498;28;20377;-73
2022/03/26 05:39:57;;;;;;;155.88;132.73;;;7.10;65.70;;;;;;5012678;28;20448;-73
2022/03/26 05:42:23;;;;;;;150.27;133.77;;;7.10;65.60;;;;;;5012772;28;20054;-73
2022/03/26 05:44:52;;;;;;;153.30;134.68;;;7.10;65.50;;;;;;5012700;28;20409;-73
2022/03/26 05:47:19;;;;;;;153.77;135.32;;;7.10;65.60;;;;;;5012455;28;20116;-73
2022/03/26 05:49:45;;;;;;;157.68;134.95;;;7.10;65.80;;;;;;5011342;28;20138;-73
2022/03/26 05:52:12;;;;;;;154.93;135.40;;;7.10;66.00;;;;;;4994903;28;20993;-73
2022/03/26 05:54:39;;;;;;;154.10;132.32;;;7.10;66.30;;;;;;5011997;28;20047;-73
2022/03/26 05:57:07;;;;;;;152.65;134.50;;;7.10;66.70;;;;;;5014089;28;20046;-73
2022/03/26 05:59:33;;;;;;;150.98;134.40;;;7.10;66.70;;;;;;4997965;28;20050;-73
2022/03/26 06:02:02;;;;;;;152.90;131.68;;;7.20;67.20;;;;;;5014302;28;20065;-73
2022/03/26 06:04:29;;;;;;;145.00;128.98;;;7.20;67.50;;;;;;5014482;28;20109;-73
2022/03/26 06:06:56;;;;;;;148.60;130.05;;;7.20;67.40;;;;;;5014243;28;20054;-73
2022/03/26 06:09:23;;;;;;;145.52;129.60;;;7.20;67.60;;;;;;5014593;28;20055;-73
2022/03/26 06:11:50;;;;;;;151.43;131.50;;;7.20;67.50;;;;;;5014424;28;20059;-73
2022/03/26 06:14:18;;;;;;;143.65;127.95;;;7.20;67.40;;;;;;5016067;28;20054;-73
2022/03/26 06:16:45;;;;;;;146.05;129.98;;;7.20;67.60;;;;;;5016065;28;20054;-73
2022/03/26 06:19:14;;;;;;;142.05;126.38;;;7.20;68.10;;;;;;5014314;28;20072;-73
2022/03/26 06:21:41;;;;;;;146.32;130.13;;;7.20;68.60;;;;;;5014484;28;20089;-73
2022/03/26 06:24:08;;;;;;;150.35;133.65;;;7.30;68.50;;;;;;5015028;28;20141;-73
2022/03/26 06:26:37;;;;;;;151.63;131.85;;;7.20;68.70;;;;;;5014514;28;20496;-73
2022/03/26 06:29:04;;;;;;;152.00;133.48;;;7.20;69.80;;;;;;5015400;28;20129;-73
2022/03/26 06:31:31;;;;;;;152.93;131.18;;;7.30;69.90;;;;;;5015637;28;20057;-73
2022/03/26 06:33:58;;;;;;;150.02;131.63;;;7.30;70.50;;;;;;5015058;28;20077;-73
2022/03/26 06:36:27;;;;;;;151.27;133.80;;;7.30;70.60;;;;;;5026475;28;20128;-73
2022/03/26 06:38:54;;;;;;;155.63;136.18;;;7.30;71.10;;;;;;5031227;28;20164;-73
2022/03/26 06:41:21;;;;;;;165.40;138.80;;;7.30;71.20;;;;;;5033431;28;20077;-73
2022/03/26 06:43:48;;;;;;;173.68;141.77;;;7.30;71.60;;;;;;4935597;28;20590;-73
2022/03/26 06:46:15;;;;;;;177.27;144.60;;;7.30;71.70;;;;;;5015320;28;20064;-73
2022/03/26 06:48:42;;;;;;;182.52;146.13;;;7.30;72.00;;;;;;5030828;28;20188;-73
2022/03/26 06:51:09;;;;;;;184.68;149.02;;;7.30;72.60;;;;;;5024793;28;20498;-73
2022/03/26 06:53:38;;;;;;;194.50;156.40;;;7.30;73.20;;;;;;5025304;28;20584;-73
2022/03/26 06:56:07;;;;;;;208.68;163.93;;;7.40;73.60;;;;;;5021784;28;20133;-73
2022/03/26 06:58:34;;;;;;;209.52;168.05;;;7.40;74.20;;;;;;5023240;28;20065;-73
2022/03/26 07:01:01;;;;;;;212.43;166.82;;;7.40;74.70;;;;;;5020177;28;20844;-73
2022/03/26 07:03:28;;;;;;;217.77;169.15;;;7.40;75.30;;;;;;5020325;28;20487;-73
2022/03/26 07:05:55;;;;;;;216.70;170.93;;;7.40;76.10;;;;;;5020700;28;20083;-73
2022/03/26 07:08:23;;;;;;;223.45;175.75;;;7.40;76.90;;;;;;5020197;28;20066;-73
2022/03/26 07:10:51;;;;;;;231.32;180.82;;;7.50;77.40;;;;;;5022137;28;20559;-73
2022/03/26 07:13:18;;;;;;;230.98;184.05;;;7.50;78.20;;;;;;5026804;28;20050;-73
2022/03/26 07:15:45;;;;;;;231.38;178.77;;;7.50;80.00;;;;;;5026605;28;20052;-73
2022/03/26 07:18:12;;;;;;;227.48;178.98;;;7.60;80.80;;;;;;5032794;28;20046;-73
2022/03/26 07:20:39;;;;;;;222.95;177.20;;;7.60;81.00;;;;;;5032658;28;20046;-73
2022/03/26 07:23:06;;;;;;;217.50;176.52;;;7.70;81.20;;;;;;5014754;28;20042;-73
2022/03/26 07:25:34;;;;;;;217.43;175.13;;;7.70;80.80;;;;;;5030948;28;20058;-73
2022/03/26 07:28:04;;;;;;;214.27;174.27;;;7.70;80.60;;;;;;5031119;28;20084;-74
2022/03/26 07:30:31;;;;;;;221.60;174.13;;;7.80;81.40;;;;;;5013939;28;20053;-73
2022/03/26 07:32:57;;;;;;;216.90;175.73;;;7.80;81.60;;;;;;5030084;28;20050;-73
2022/03/26 07:35:24;;;;;;;215.00;172.65;;;7.90;81.60;;;;;;5029385;28;20053;-73
2022/03/26 07:37:51;;;;;;;219.68;173.27;;;7.90;82.10;;;;;;5030195;28;20133;-74
2022/03/26 07:40:18;;;;;;;217.27;172.57;;;8.00;82.50;;;;;;5031729;28;20049;-73
2022/03/26 07:42:46;;;;;;;221.90;173.45;;;8.00;82.20;;;;;;5031813;28;20077;-73
2022/03/26 07:45:14;;;;;;;217.38;171.75;;;8.10;82.30;;;;;;5032404;28;20082;-73
2022/03/26 07:47:41;;;;;;;208.52;168.95;;;8.20;83.80;;;;;;5032895;28;20054;-74
2022/03/26 07:50:09;;;;;;;212.20;169.43;;;8.20;84.00;;;;;;5030250;28;20835;-73
2022/03/26 07:52:38;;;;;;;204.77;163.10;;;8.30;83.70;;;;;;5033355;28;21860;-73
2022/03/26 07:55:07;;;;;;;200.65;161.63;;;8.40;85.10;;;;;;5031483;28;20060;-72
2022/03/26 07:57:33;;;;;;;192.52;156.23;;;8.40;85.90;;;;;;5032790;28;20046;-73
2022/03/26 08:00:02;;;;;;;191.20;153.45;;;8.50;85.90;;;;;;5033159;28;20437;-73
2022/03/26 08:02:41;;;;;;;186.15;148.32;;;8.60;84.80;;;;;;5047502;28;20050;-73
2022/03/26 08:05:08;;;;;;;185.63;149.63;;;8.60;84.10;;;;;;5029758;28;20054;-73
2022/03/26 08:07:35;;;;;;;181.95;147.00;;;8.70;84.30;;;;;;5031542;28;20479;-72
2022/03/26 08:10:02;;;;;;;178.90;148.50;;;8.80;83.60;;;;;;5022228;28;20148;-72
2022/03/26 08:12:29;;;;;;;186.45;151.07;;;8.90;83.80;;;;;;5023242;28;20081;-73
2022/03/26 08:14:56;;;;;;;184.25;151.60;;;8.90;84.10;;;;;;5031486;28;20128;-73
2022/03/26 08:17:25;;;;;;;181.25;146.63;;;9.00;83.50;;;;;;5028825;28;20046;-73
2022/03/26 08:19:53;;;;;;;174.05;146.20;;;9.10;84.00;;;;;;5031130;28;20054;-73
2022/03/26 08:22:20;;;;;;;177.02;144.55;;;9.20;83.70;;;;;;5028000;28;20511;-74
2022/03/26 08:24:47;;;;;;;173.07;145.65;;;9.20;84.00;;;;;;5014505;28;20448;-73
2022/03/26 08:27:14;;;;;;;175.02;144.55;;;9.30;82.80;;;;;;5031264;28;20805;-74
2022/03/26 08:29:41;;;;;;;167.95;140.10;;;9.40;83.00;;;;;;5045939;28;20084;-74
2022/03/26 08:32:08;;;;;;;166.30;140.88;;;9.50;81.80;;;;;;5031356;28;20062;-73
2022/03/26 08:34:36;;;;;;;161.05;137.77;;;9.60;81.40;;;;;;5030548;28;20060;-75
2022/03/26 08:37:04;;;;;;;171.52;140.63;;;9.60;81.00;;;;;;5025467;28;20056;-73
2022/03/26 08:39:31;;;;;;;169.30;143.65;;;9.70;80.60;;;;;;5025743;28;20046;-74
2022/03/26 08:41:58;;;;;;;174.00;142.55;;;9.80;80.40;;;;;;5032379;28;20133;-73
2022/03/26 08:44:25;;;;;;;167.68;140.20;;;9.90;80.50;;;;;;5042892;28;20804;-73
2022/03/26 08:46:52;;;;;;;169.75;141.70;;;10.00;80.40;;;;;;5024030;28;20508;-73
2022/03/26 08:49:19;;;;;;;169.05;141.38;;;10.10;80.40;;;;;;5021937;28;20055;-73
2022/03/26 08:51:46;;;;;;;161.43;139.40;;;10.20;80.00;;;;;;5020502;28;20137;-73
2022/03/26 08:54:14;;;;;;;160.82;137.15;;;10.30;80.10;;;;;;5016558;28;20544;-74
2022/03/26 08:56:41;;;;;;;162.95;138.35;;;10.30;80.10;;;;;;5019084;28;20141;-72
2022/03/26 08:59:08;;;;;;;158.68;137.27;;;10.40;80.10;;;;;;5019220;28;20054;-76
2022/03/26 09:01:35;;;;;;;152.38;133.82;;;10.50;80.10;;;;;;5027614;28;20052;-73
2022/03/26 09:04:02;;;;;;;157.50;136.80;;;10.50;80.40;;;;;;5028529;28;20049;-73
2022/03/26 09:06:29;;;;;;;157.70;137.48;;;10.70;79.60;;;;;;5026158;28;20180;-74
2022/03/26 09:08:58;;;;;;;155.73;137.35;;;10.80;78.40;;;;;;5029935;28;20053;-73
2022/03/26 09:11:26;;;;;;;151.93;134.15;;;10.80;78.00;;;;;;5031494;28;20058;-73
2022/03/26 09:13:53;;;;;;;154.73;133.30;;;10.90;78.20;;;;;;5029664;28;20136;-73
2022/03/26 09:16:19;;;;;;;148.80;132.45;;;11.00;78.50;;;;;;5031162;28;20046;-73
2022/03/26 09:18:47;;;;;;;150.68;133.18;;;11.10;77.90;;;;;;5031470;28;20137;-74
2022/03/26 09:21:14;;;;;;;156.90;135.40;;;11.20;77.20;;;;;;5031130;28;20048;-74
2022/03/26 09:23:41;;;;;;;149.38;132.77;;;11.30;77.70;;;;;;5047564;28;20140;-74
2022/03/26 09:26:08;;;;;;;153.95;135.65;;;11.30;77.30;;;;;;5030188;28;20046;-74
2022/03/26 09:28:36;;;;;;;154.13;136.05;;;11.50;76.50;;;;;;5030841;28;20046;-74
2022/03/26 09:31:03;;;;;;;156.20;136.20;;;11.50;76.10;;;;;;5035042;28;20054;-74
2022/03/26 09:33:30;;;;;;;147.07;130.38;;;11.70;76.20;;;;;;5023762;28;20053;-74
2022/03/26 09:35:57;;;;;;;149.25;133.15;;;11.80;75.80;;;;;;5018984;28;20098;-76
2022/03/26 09:38:24;;;;;;;141.60;126.30;;;11.90;76.50;;;;;;5022524;28;20125;-74
2022/03/26 09:40:51;;;;;;;142.65;127.78;;;12.00;76.90;;;;;;5030927;28;20523;-75
2022/03/26 09:43:19;;;;;;;143.60;128.52;;;12.10;76.90;;;;;;5034176;28;20145;-75
2022/03/26 09:45:48;;;;;;;143.25;128.10;;;12.20;77.10;;;;;;5033968;28;20138;-73
2022/03/26 09:48:14;;;;;;;142.73;127.63;;;12.30;78.00;;;;;;5028324;28;20136;-74
2022/03/26 09:50:43;;;;;;;142.15;127.47;;;12.40;77.60;;;;;;5033232;28;20056;-75
2022/03/26 09:53:12;;;;;;;142.68;127.90;;;12.50;76.90;;;;;;5017795;28;20124;-75
2022/03/26 09:55:40;;;;;;;146.95;131.32;;;12.50;76.80;;;;;;5035360;28;20124;-75
2022/03/26 09:58:07;;;;;;;144.25;129.48;;;12.70;77.00;;;;;;5033295;28;20056;-74
2022/03/26 10:00:34;;;;;;;145.75;130.52;;;12.80;77.10;;;;;;5030910;28;20053;-74
2022/03/26 10:03:02;;;;;;;148.45;132.90;;;12.80;77.70;;;;;;5028085;28;20060;-74
2022/03/26 10:05:32;;;;;;;146.05;130.77;;;12.90;78.40;;;;;;5024904;28;20054;-75
2022/03/26 10:08:15;;;;;;;146.05;130.77;;;13.00;78.00;;;;;;5026291;28;20166;-73
2022/03/26 10:10:45;;;;;;;145.80;130.60;;;13.10;77.80;;;;;;5035985;28;20138;-74
2022/03/26 10:13:12;;;;;;;139.88;125.65;;;13.20;78.20;;;;;;5031363;28;20057;-74
2022/03/26 10:15:59;;;;;;;137.13;123.45;;;13.30;78.30;;;;;;5023012;28;20047;-74
2022/03/26 10:18:34;;;;;;;135.55;121.65;;;13.40;78.70;;;;;;5022397;28;20077;-74
2022/03/26 10:21:01;;;;;;;133.30;120.38;;;13.60;79.50;;;;;;5032202;28;20068;-75
2022/03/26 10:23:29;;;;;;;135.68;122.45;;;13.80;79.70;;;;;;5025257;28;20089;-74
2022/03/26 10:26:10;;;;;;;137.15;123.55;;;13.90;79.70;;;;;;5022558;28;20046;-74
2022/03/26 10:28:38;;;;;;;139.82;126.30;;;14.00;79.50;;;;;;5022096;28;20141;-74
2022/03/26 10:34:09;;;;;;;140.13;126.80;;;14.30;78.80;;;;;;5015450;28;20137;-74
2022/03/26 10:36:38;;;;;;;140.27;126.60;;;14.50;78.60;;;;;;5015891;28;20057;-74
2022/03/26 10:39:06;;;;;;;139.98;126.53;;;14.50;78.60;;;;;;5029646;28;20508;-74
2022/03/26 10:41:34;;;;;;;140.13;126.93;;;14.70;78.80;;;;;;5024670;28;20050;-75
2022/03/26 10:44:10;;;;;;;142.30;128.80;;;14.80;78.50;;;;;;5023128;28;20049;-75
2022/03/26 10:46:44;;;;;;;;;;;14.90;77.60;;;;;;5026283;28;20046;-75
2022/03/26 10:49:12;;;;;;;139.32;126.10;;;15.00;77.10;;;;;;5026234;28;19925;-76
2022/03/26 10:51:41;;;;;;;136.45;123.78;;;15.10;77.10;;;;;;5022899;28;20157;-76
2022/03/26 10:54:12;;;;;;;141.52;128.20;;;15.10;76.60;;;;;;5024664;28;20051;-74
2022/03/26 10:56:40;;;;;;;140.63;127.65;;;15.30;76.60;;;;;;5022416;28;20054;-75
2022/03/26 10:59:08;;;;;;;139.85;126.97;;;15.40;76.50;;;;;;5020221;28;20488;-74
2022/03/26 11:01:35;;;;;;;139.32;126.78;;;15.50;76.40;;;;;;5033114;28;20050;-74
2022/03/26 11:04:04;;;;;;;138.20;125.63;;;15.60;76.40;;;;;;5030789;28;20056;-75
2022/03/26 11:06:39;;;;;;;138.25;125.78;;;15.70;76.50;;;;;;5028511;28;20472;-75
2022/03/26 11:09:08;;;;;;;138.82;126.40;;;15.80;76.00;;;;;;5028055;28;20054;-75
2022/03/26 11:11:38;;;;;;;137.18;124.70;;;15.90;75.30;;;;;;5011208;28;20058;-75
2022/03/26 11:14:10;;;;;;;136.60;123.60;;;16.00;74.90;;;;;;5005963;28;20137;-73
2022/03/26 11:16:57;;;;;;;134.75;122.80;;;16.10;74.40;;;;;;5023594;28;20046;-73
2022/03/26 11:19:34;;;;;;;133.80;122.18;;;16.20;73.60;;;;;;5024890;28;20080;-74
2022/03/26 11:22:29;;;;;;;136.70;122.07;;;16.30;73.20;;;;;;5025860;28;20054;-74
2022/03/26 11:25:07;;;;;;;;;;;16.50;73.10;;;;;;5025070;28;20081;-74
2022/03/26 11:27:49;;;;;;;135.20;123.35;;;16.50;73.10;;;;;;5024374;28;20012;-74
2022/03/26 11:30:20;;;;;;;132.35;121.03;;;16.70;72.80;;;;;;5029902;28;20137;-73
2022/03/26 11:32:52;;;;;;;131.60;120.25;;;16.80;72.00;;;;;;5023125;28;20076;-73
2022/03/26 11:35:20;;;;;;;133.80;122.38;;;16.90;71.90;;;;;;5022011;28;20128;-73
2022/03/26 11:37:53;;;;;;;134.82;123.22;;;17.00;71.10;;;;;;5005034;28;20480;-73
2022/03/26 11:40:42;;;;;;;135.63;124.05;;;17.10;71.00;;;;;;5022582;28;20642;-73
2022/03/26 11:43:09;;;;;;;133.68;122.30;;;17.20;70.20;;;;;;5022323;28;20059;-74
2022/03/26 11:51:23;;;;;;;135.93;124.55;;;17.50;69.80;;;;;;5023637;28;20344;-76
2022/03/26 11:53:59;;;;;;;139.25;127.65;;;17.60;69.10;;;;;;5015460;28;20492;-75
2022/03/26 11:56:28;;;;;;;138.63;126.30;;;17.70;68.90;;;;;;5013113;28;20073;-76
2022/03/26 11:59:23;;;;;;;136.48;125.00;;;17.80;68.30;;;;;;5013714;28;20125;-75
2022/03/26 12:01:50;;;;;;;134.52;123.18;;;17.90;67.70;;;;;;5026137;28;20046;-75
2022/03/26 12:04:19;;;;;;;133.40;122.40;;;18.00;67.40;;;;;;5023942;28;20469;-77
2022/03/26 12:06:49;;;;;;;135.63;124.82;;;18.10;66.60;;;;;;5031197;28;20061;-75
2022/03/26 12:09:31;;;;;;;136.43;125.50;;;18.20;66.30;;;;;;5032833;28;20807;-75
2022/03/26 12:12:17;;;;;;;133.90;123.22;;;18.30;66.30;;;;;;5028962;28;20060;-75
2022/03/26 12:15:23;;;;;;;136.80;125.78;;;18.40;66.20;;;;;;5031550;28;20057;-75
2022/03/26 12:17:53;;;;;;;133.18;122.70;;;18.50;66.10;;;;;;5031426;28;20057;-76
2022/03/26 12:20:23;;;;;;;135.73;125.15;;;18.60;65.60;;;;;;5030473;28;20054;-76
2022/03/26 12:22:52;;;;;;;134.13;123.53;;;18.70;64.80;;;;;;5014827;28;20081;-77
2022/03/26 12:25:37;;;;;;;135.20;124.60;;;18.80;64.50;;;;;;5026322;28;20425;-76
2022/03/26 12:28:07;;;;;;;131.65;121.38;;;18.90;64.40;;;;;;5029824;28;20050;-76